WetterOnline ( https://www.wetteronline.de )

Wetter aktuell Schkeuditz

Aktuelles Wetter: Leipzig/Halle (136m)

6-stündlich | Neueste Meldungen
Ortszeit Temperatur Wetter
Di, 22.09. 20:00 22.5° C wolkig
Di, 22.09. 14:00 26.2° C wolkenlos
Di, 22.09. 8:00 12.1° C wolkenlos
Di, 22.09. 2:00 14.2° C wolkenlos
Mo, 21.09. 20:00 20.5° C wolkenlos
Mo, 21.09. 14:00 23.9° C wolkenlos
Mo, 21.09. 8:00 9.0° C fast wolkenlos
Mo, 21.09. 2:00 11.5° C wolkenlos
Ortszeit Temperatur Wetter
Di, 22.09. 23:30 19.8° C wolkenlos
Di, 22.09. 23:20 19.8° C wolkenlos
Di, 22.09. 23:10 20.1° C wolkenlos
Di, 22.09. 23:00 19.8° C leicht bewölkt
Di, 22.09. 22:50 19.8° C leicht bewölkt
Di, 22.09. 22:40 19.1° C leicht bewölkt
Di, 22.09. 22:30 18.9° C fast wolkenlos
Di, 22.09. 22:00 19.9° C leicht bewölkt
Di, 22.09. 21:30 20.6° C leicht bewölkt
Di, 22.09. 21:00 21.0° C leicht bewölkt
Di, 22.09. 20:30 21.7° C leicht bewölkt
Ortszeit Relative Feuchte Sichtweite
Di, 22.09. 20:00 59% 40 km
Di, 22.09. 14:00 39% 45 km
Di, 22.09. 8:00 87% 18 km
Di, 22.09. 2:00 77% 35 km
Mo, 21.09. 20:00 51% 40 km
Mo, 21.09. 14:00 38% 35 km
Mo, 21.09. 8:00 81% 50 km
Mo, 21.09. 2:00 70% 50 km
Ortszeit Relative Feuchte Sichtweite
Di, 22.09. 23:30 64% 35 km
Di, 22.09. 23:20 64% -
Di, 22.09. 23:10 63% -
Di, 22.09. 23:00 64% 50 km
Di, 22.09. 22:50 64% -
Di, 22.09. 22:40 67% -
Di, 22.09. 22:30 68% 40 km
Di, 22.09. 22:00 64% 50 km
Di, 22.09. 21:30 63% 35 km
Di, 22.09. 21:00 61% 45 km
Di, 22.09. 20:30 61% 45 km
Ortszeit Niederschlagsmenge Niederschlagsart
Di, 22.09. 20:00 0.0 l/m2 in 12 Std. Gewitter
Di, 22.09. 14:00 0.0 l/m2 in 6 Std. -
Di, 22.09. 8:00 0.0 l/m2 in 12 Std. -
Di, 22.09. 2:00 0.0 l/m2 in 6 Std. -
Mo, 21.09. 20:00 0.0 l/m2 in 12 Std. -
Mo, 21.09. 14:00 0.0 l/m2 in 6 Std. -
Mo, 21.09. 8:00 0.0 l/m2 in 12 Std. -
Mo, 21.09. 2:00 0.0 l/m2 in 6 Std. -
Ortszeit Niederschlagsmenge Niederschlagsart
Di, 22.09. 23:30 0.0 l/m2 in 1 Std. -
Di, 22.09. 23:20 keine Meldung -
Di, 22.09. 23:10 keine Meldung -
Di, 22.09. 23:00 0.0 l/m2 in 1 Std. -
Di, 22.09. 22:50 keine Meldung -
Di, 22.09. 22:40 keine Meldung -
Di, 22.09. 22:30 0.0 l/m2 in 1 Std. -
Di, 22.09. 22:00 0.0 l/m2 in 1 Std. -
Di, 22.09. 21:30 0.0 l/m2 in 1 Std. -
Di, 22.09. 21:00 0.0 l/m2 in 1 Std. -
Di, 22.09. 20:30 0.0 l/m2 in 1 Std. -
Ortszeit Stärke Spitze Richtung
km/h Bft. km/h Grad Sektor
Di, 22.09. 20:00 4 1 36 360° N
Di, 22.09. 14:00 11 2 26 230° SW
Di, 22.09. 8:00 7 2 17 190° S
Di, 22.09. 2:00 6 1 15 180° S
Mo, 21.09. 20:00 7 2 26 100° O
Mo, 21.09. 14:00 14 3 25 100° O
Mo, 21.09. 8:00 6 1 15 340° N
Mo, 21.09. 2:00 7 2 18 50° NO
Ortszeit Stärke Spitze Richtung
km/h Bft. km/h Grad Sektor
Di, 22.09. 23:30 9 2 13 190° S
Di, 22.09. 23:20 9 2 - 190° S
Di, 22.09. 23:10 7 2 - 210° SW
Di, 22.09. 23:00 7 2 11 190° S
Di, 22.09. 22:50 7 2 - 190° S
Di, 22.09. 22:40 7 2 - 180° S
Di, 22.09. 22:30 7 2 11 170° S
Di, 22.09. 22:00 6 1 7 110° O
Di, 22.09. 21:30 7 2 7 100° O
Di, 22.09. 21:00 4 1 7 140° SO
Di, 22.09. 20:30 4 1 7 130° SO
Ortszeit Untergrenze Bedeckung Gattung
total tief tief mittel hoch
Di, 22.09. 20:00 1800 m 6/8 6/8 Cb - -
Di, 22.09. 14:00 - 0/8 0/8 - - -
Di, 22.09. 8:00 - 0/8 0/8 - - -
Di, 22.09. 2:00 - 0/8 0/8 - - -
Mo, 21.09. 20:00 - 0/8 0/8 - - -
Mo, 21.09. 14:00 - 0/8 0/8 - - -
Mo, 21.09. 8:00 9000 m 1/8 0/8 - - Ci
Mo, 21.09. 2:00 - 0/8 0/8 - - -
Ortszeit Bedeckungsgrad in Achtel und Wolkenuntergrenze
Di, 22.09. 23:30 keine Wolken
Di, 22.09. 23:20 keine Wolken
Di, 22.09. 23:10 keine Wolken
Di, 22.09. 23:00 3(1500m)
Di, 22.09. 22:50 3(1800m)
Di, 22.09. 22:40 4(2100m)
Di, 22.09. 22:30 1(1800m)
Di, 22.09. 22:00 2(1500m)
Di, 22.09. 21:30 4(3000m) 4(3000m)
Di, 22.09. 21:00 3(1800m) 7(3000m) 2(1800m)
Di, 22.09. 20:30 4(1800m) 4(2100m)
Ortszeit Luftdruck NN (hPa) Tendenz (hPa in 3 Std.)
Di, 22.09. 20:00 1008 - 1,0
Di, 22.09. 14:00 1010 - 1,6
Di, 22.09. 8:00 1013 + 0,1
Di, 22.09. 2:00 1014 - 0,9
Mo, 21.09. 20:00 1015 - 0,4
Mo, 21.09. 14:00 1016 - 1,5
Mo, 21.09. 8:00 1018 + 0,3
Mo, 21.09. 2:00 1018 + 0,1
Ortszeit Luftdruck NN (hPa) Tendenz (hPa in 3 Std.)
Di, 22.09. 23:30 1007 - 0,5
Di, 22.09. 23:20 1007 keine Meldung
Di, 22.09. 23:10 1007 keine Meldung
Di, 22.09. 23:00 1008 - 0,3
Di, 22.09. 22:50 1008 keine Meldung
Di, 22.09. 22:40 1008 keine Meldung
Di, 22.09. 22:30 1008 - 0,3
Di, 22.09. 22:00 1008 - 0,3
Di, 22.09. 21:30 1008 - 0,1
Di, 22.09. 21:00 1008 - 0,3
Di, 22.09. 20:30 1008 - 0,5
Ortszeit Schneehöhe (cm)
Di, 22.09. 20:00 0
Di, 22.09. 14:00 0
Di, 22.09. 8:00 0
Di, 22.09. 2:00 0
Mo, 21.09. 20:00 0
Mo, 21.09. 14:00 0
Mo, 21.09. 8:00 0
Mo, 21.09. 2:00 0
Ortszeit Schneehöhe (cm)
Di, 22.09. 23:30 -
Di, 22.09. 23:20 -
Di, 22.09. 23:10 -
Di, 22.09. 23:00 -
Di, 22.09. 22:50 -
Di, 22.09. 22:40 -
Di, 22.09. 22:30 -
Di, 22.09. 22:00 -
Di, 22.09. 21:30 -
Di, 22.09. 21:00 -
Di, 22.09. 20:30 -
Link zu dieser Seite / Seite empfehlen

Das Wetter in ...